Time;durP1;ratioP1;P1;durP2;ratioP2;P2;SDS_P1;SDS_P2;PMS_P1;PMS_P2;Temp;Humidity;BMP_temperature;BMP_pressure;BME280_temperature;BME280_humidity;BME280_pressure;Samples;Min_cycle;Max_cycle;Signal;HPM_P1;HPM_P2
2020/12/29 06:56:32;;;;;;;15.68;9.25;;;;;;;-0.13;100.00;101320.30;1658766;84;21203;-92
2020/12/29 06:59:19;;;;;;;13.45;9.40;;;;;;;-0.08;100.00;101300.59;1645240;85;21174;-91
2020/12/29 07:21:50;;;;;;;13.85;8.75;;;;;;;0.04;100.00;101313.59;1704243;82;22357;-90
2020/12/29 07:24:35;;;;;;;15.28;10.23;;;;;;;0.04;100.00;101340.48;1684809;83;21167;-91
2020/12/29 07:27:03;;;;;;;14.90;9.33;;;;;;;0.03;100.00;101341.34;1697030;82;21270;-90
2020/12/29 07:29:32;;;;;;;16.37;10.23;;;;;;;0.02;100.00;101338.37;1692518;82;21182;-90
2020/12/29 07:32:01;;;;;;;21.05;9.53;;;;;;;-0.01;100.00;101351.63;1666296;84;21206;-89
2020/12/29 07:34:31;;;;;;;18.30;10.85;;;;;;;-0.01;100.00;101353.36;1687889;84;21173;-90
2020/12/29 07:37:00;;;;;;;14.67;9.10;;;;;;;-0.03;100.00;101345.69;1691554;84;21201;-88
2020/12/29 07:39:28;;;;;;;13.88;9.43;;;;;;;-0.02;100.00;101335.86;1686856;84;21195;-90
2020/12/29 07:42:03;;;;;;;13.93;9.55;;;;;;;-0.02;100.00;101333.75;1684465;84;21243;-90
2020/12/29 07:44:34;;;;;;;15.08;9.38;;;;;;;-0.02;100.00;101347.38;1689991;83;21390;-90
2020/12/29 07:47:02;;;;;;;15.65;10.18;;;;;;;-0.02;100.00;101353.78;1681497;83;21170;-88
2020/12/29 07:49:37;;;;;;;16.95;9.83;;;;;;;0.00;100.00;101362.74;1682980;83;21658;-89
2020/12/29 07:52:05;;;;;;;19.17;10.40;;;;;;;0.03;100.00;101365.67;1683620;83;21761;-89
2020/12/29 07:54:34;;;;;;;15.95;10.65;;;;;;;0.06;100.00;101378.40;1688167;84;21142;-88
2020/12/29 07:57:02;;;;;;;14.15;9.98;;;;;;;0.08;100.00;101380.05;1693034;84;21376;-89
2020/12/29 07:59:30;;;;;;;18.37;10.68;;;;;;;0.11;100.00;101379.18;1687626;84;21597;-89
2020/12/29 08:01:58;;;;;;;15.83;11.03;;;;;;;0.10;100.00;101369.80;1694157;83;21205;-90
2020/12/29 08:04:46;;;;;;;15.60;10.85;;;;;;;0.10;100.00;101365.95;1697028;84;21198;-89
2020/12/29 08:07:14;;;;;;;16.12;11.30;;;;;;;0.08;100.00;101358.28;1680470;83;21159;-89
2020/12/29 08:09:46;;;;;;;14.38;10.25;;;;;;;0.10;100.00;101354.44;1715886;82;39953;-89
2020/12/29 08:12:16;;;;;;;15.58;10.28;;;;;;;0.09;100.00;101349.73;1714740;82;21620;-89
2020/12/29 08:14:45;;;;;;;17.35;11.63;;;;;;;0.09;100.00;101347.62;1680879;84;21197;-89
2020/12/29 08:17:13;;;;;;;16.82;10.93;;;;;;;0.08;100.00;101336.97;1651233;86;21178;-89
2020/12/29 08:19:41;;;;;;;16.35;10.88;;;;;;;0.07;100.00;101339.98;1625328;86;21242;-89
2020/12/29 08:22:11;;;;;;;19.00;11.63;;;;;;;0.08;100.00;101345.93;1648669;86;21927;-89
2020/12/29 08:24:41;;;;;;;16.75;11.65;;;;;;;0.10;100.00;101345.47;1685522;83;21146;-89
2020/12/29 08:27:09;;;;;;;19.37;11.33;;;;;;;0.10;100.00;101346.75;1684145;84;21126;-89
2020/12/29 08:29:38;;;;;;;18.10;12.63;;;;;;;0.10;100.00;101341.17;1688080;84;21157;-89
2020/12/29 08:32:12;;;;;;;18.07;12.00;;;;;;;0.12;100.00;101342.45;1693029;83;21185;-90
2020/12/29 08:34:41;;;;;;;18.57;12.65;;;;;;;0.13;100.00;101330.02;1698661;83;21370;-89
2020/12/29 08:37:09;;;;;;;18.35;11.43;;;;;;;0.14;100.00;101330.44;1688651;84;21126;-89
2020/12/29 08:40:08;;;;;;;19.70;11.63;;;;;;;0.14;100.00;101338.98;1690801;84;21640;-89
2020/12/29 08:42:40;;;;;;;17.98;12.65;;;;;;;0.15;100.00;101332.98;1687414;83;21593;-89
2020/12/29 08:45:10;;;;;;;17.45;11.93;;;;;;;0.16;100.00;101335.09;1684802;83;21767;-89
2020/12/29 08:47:38;;;;;;;22.67;12.60;;;;;;;0.17;100.00;101336.78;1685186;83;21195;-89
2020/12/29 08:50:26;;;;;;;17.75;12.05;;;;;;;0.19;100.00;101339.30;1689558;82;21295;-89
2020/12/29 08:53:04;;;;;;;17.40;12.20;;;;;;;0.20;100.00;101344.39;1687358;83;21137;-89
2020/12/29 08:55:35;;;;;;;21.60;13.22;;;;;;;0.21;100.00;101361.91;1682574;83;21205;-89
2020/12/29 08:58:04;;;;;;;19.07;12.70;;;;;;;0.22;100.00;101346.49;1688042;84;21514;-89
2020/12/29 09:00:32;;;;;;;19.62;12.43;;;;;;;0.22;100.00;101341.37;1685320;83;21198;-89
2020/12/29 09:03:02;;;;;;;20.88;13.80;;;;;;;0.23;100.00;101335.37;1689962;82;21533;-89
2020/12/29 09:05:30;;;;;;;18.87;12.88;;;;;;;0.25;100.00;101333.63;1649038;84;21130;-89
2020/12/29 09:08:28;;;;;;;18.62;13.10;;;;;;;0.26;100.00;101333.19;1696181;83;21206;-89
2020/12/29 09:11:14;;;;;;;19.50;12.33;;;;;;;0.27;100.00;101326.77;1663705;85;21090;-90
2020/12/29 09:14:04;;;;;;;19.42;12.55;;;;;;;0.26;100.00;101308.84;1631153;86;21457;-89
2020/12/29 09:16:33;;;;;;;20.23;13.70;;;;;;;0.27;100.00;101320.78;1626392;86;21301;-89
2020/12/29 09:19:13;;;;;;;20.37;14.15;;;;;;;0.27;100.00;101329.75;1660069;85;21300;-89
2020/12/29 09:22:08;;;;;;;21.55;13.90;;;;;;;0.26;100.00;101335.33;1660969;85;21155;-89
2020/12/29 09:24:37;;;;;;;21.15;13.45;;;;;;;0.26;100.00;101339.16;1669490;85;21166;-89
2020/12/29 09:27:05;;;;;;;22.10;13.25;;;;;;;0.27;100.00;101326.77;1684951;82;21451;-89
2020/12/29 09:29:35;;;;;;;21.95;13.18;;;;;;;0.29;100.00;101322.88;1681888;83;21585;-89
2020/12/29 09:32:02;;;;;;;22.13;14.00;;;;;;;0.30;100.00;101319.45;1687357;83;21126;-89
2020/12/29 09:34:31;;;;;;;22.25;14.45;;;;;;;0.30;100.00;101318.17;1685879;83;21247;-89
2020/12/29 09:37:28;;;;;;;22.42;13.85;;;;;;;0.29;100.00;101319.88;1683222;83;21186;-89
2020/12/29 09:39:56;;;;;;;21.95;13.08;;;;;;;0.29;100.00;101312.19;1690696;82;21557;-92
2020/12/29 09:42:47;;;;;;;25.25;14.73;;;;;;;0.33;100.00;101301.88;1688599;83;21589;-93
2020/12/29 09:45:30;;;;;;;24.82;15.32;;;;;;;0.34;100.00;101297.16;1661222;84;21586;-91
2020/12/29 09:47:58;;;;;;;24.02;14.47;;;;;;;0.36;100.00;101290.30;1629039;86;21763;-93
2020/12/29 09:50:26;;;;;;;25.75;15.50;;;;;;;0.37;100.00;101299.64;1630370;85;21159;-92
2020/12/29 09:52:54;;;;;;;25.08;15.98;;;;;;;0.38;100.00;101294.51;1649272;85;21766;-92
2020/12/29 09:55:22;;;;;;;24.47;15.25;;;;;;;0.40;100.00;101300.42;1658374;85;21569;-92
2020/12/29 09:57:50;;;;;;;23.85;15.72;;;;;;;0.42;100.00;101288.42;1656040;85;21186;-91
2020/12/29 10:00:19;;;;;;;26.30;15.88;;;;;;;0.44;100.00;101280.72;1684380;84;21570;-92
2020/12/29 10:03:26;;;;;;;26.30;15.95;;;;;;;0.47;100.00;101284.48;1691735;83;21618;-89
2020/12/29 10:05:55;;;;;;;28.00;16.52;;;;;;;0.49;100.00;101284.02;1680900;83;22155;-89
2020/12/29 10:08:23;;;;;;;28.98;17.60;;;;;;;0.51;100.00;101278.42;1685518;82;21218;-89
2020/12/29 10:10:51;;;;;;;29.52;17.60;;;;;;;0.51;100.00;101282.27;1690660;83;21166;-89
2020/12/29 10:13:20;;;;;;;31.23;17.73;;;;;;;0.53;100.00;101284.79;1682352;84;21134;-89
2020/12/29 10:15:50;;;;;;;32.30;18.82;;;;;;;0.53;100.00;101277.93;1689892;84;21162;-89
2020/12/29 10:18:18;;;;;;;37.30;18.48;;;;;;;0.52;100.00;101275.41;1694365;84;22280;-89
2020/12/29 10:20:46;;;;;;;33.65;18.82;;;;;;;0.51;100.00;101268.17;1685415;84;21191;-89
2020/12/29 10:23:14;;;;;;;31.82;18.60;;;;;;;0.51;100.00;101272.44;1685440;82;21173;-89
2020/12/29 10:25:42;;;;;;;33.45;18.65;;;;;;;0.51;100.00;101268.17;1690946;82;21142;-89
2020/12/29 10:28:10;;;;;;;35.58;20.08;;;;;;;0.53;100.00;101266.84;1691031;83;21122;-89
2020/12/29 10:30:38;;;;;;;34.20;19.07;;;;;;;0.53;100.00;101261.72;1683237;83;21729;-89
2020/12/29 10:33:07;;;;;;;34.55;20.02;;;;;;;0.53;100.00;101261.27;1685039;83;21232;-89
2020/12/29 10:35:36;;;;;;;28.38;17.50;;;;;;;0.52;100.00;101260.86;1687944;84;21111;-88
2020/12/29 10:38:04;;;;;;;32.08;18.48;;;;;;;0.54;100.00;101253.16;1682337;84;21154;-89
2020/12/29 10:41:01;;;;;;;28.38;17.30;;;;;;;0.54;100.00;101253.98;1688834;83;21185;-89
2020/12/29 10:43:29;;;;;;;29.30;16.80;;;;;;;0.56;100.00;101261.66;1686068;84;21709;-90
2020/12/29 10:45:57;;;;;;;29.18;18.30;;;;;;;0.56;100.00;101259.93;1684808;83;21225;-90
2020/12/29 10:51:54;;;;;;;31.40;17.20;;;;;;;0.57;100.00;101260.34;1660718;85;21542;-88
2020/12/29 10:54:23;;;;;;;26.30;16.25;;;;;;;0.57;100.00;101277.42;1667453;82;21635;-89
2020/12/29 10:56:55;;;;;;;26.50;16.45;;;;;;;0.56;100.00;101281.72;1687043;83;21678;-89
2020/12/29 10:59:23;;;;;;;29.02;17.50;;;;;;;0.56;100.00;101277.87;1687335;83;23138;-89
2020/12/29 11:01:58;;;;;;;28.73;17.77;;;;;;;0.58;100.00;101281.25;1687663;84;21146;-89
2020/12/29 11:04:26;;;;;;;29.02;17.45;;;;;;;0.58;100.00;101291.50;1685534;83;21118;-89
2020/12/29 11:06:54;;;;;;;27.02;17.40;;;;;;;0.59;100.00;101289.34;1687413;82;21482;-89
2020/12/29 11:09:22;;;;;;;27.67;16.82;;;;;;;0.62;100.00;101299.97;1681918;84;22124;-89
2020/12/29 11:11:50;;;;;;;29.75;17.17;;;;;;;0.66;100.00;101292.59;1659286;85;21156;-89
2020/12/29 11:14:18;;;;;;;27.62;16.40;;;;;;;0.67;100.00;101291.72;1615982;86;21235;-89
2020/12/29 11:16:50;;;;;;;30.25;18.50;;;;;;;0.68;100.00;101287.45;1685053;82;21777;-89
2020/12/29 11:19:17;;;;;;;;;;;;;;;0.70;100.00;101286.95;1666973;84;21432;-89
2020/12/29 11:21:48;;;;;;;32.75;16.42;;;;;;;0.71;100.00;101283.52;1688046;82;20537;-89
2020/12/29 11:24:16;;;;;;;29.57;16.32;;;;;;;0.72;100.00;101291.62;1651141;84;21209;-89
2020/12/29 11:26:45;;;;;;;25.77;14.85;;;;;;;0.73;100.00;101295.88;1694003;82;21623;-89
2020/12/29 11:29:34;;;;;;;25.37;16.00;;;;;;;0.73;100.00;101274.08;1645505;84;21853;-89
2020/12/29 11:32:02;;;;;;;24.05;15.40;;;;;;;0.73;100.00;101274.08;1658633;84;21246;-89
2020/12/29 11:34:30;;;;;;;25.10;16.42;;;;;;;0.76;100.00;101277.41;1619369;86;21325;-90
2020/12/29 11:36:58;;;;;;;26.10;16.93;;;;;;;0.76;100.00;101276.12;1664649;84;21695;-90
2020/12/29 11:39:27;;;;;;;25.82;15.38;;;;;;;0.76;100.00;101273.56;1685298;83;21191;-89
2020/12/29 11:41:54;;;;;;;25.92;15.65;;;;;;;0.77;100.00;101276.95;1689395;81;21617;-89
2020/12/29 11:44:24;;;;;;;28.32;15.25;;;;;;;0.79;100.00;101276.49;1681246;83;21160;-89
2020/12/29 11:46:52;;;;;;;28.60;17.17;;;;;;;0.80;100.00;101270.94;1690625;83;21812;-89
2020/12/29 11:49:20;;;;;;;41.33;21.42;;;;;;;0.82;100.00;101261.47;1687657;83;21175;-89
2020/12/29 11:51:48;;;;;;;39.23;20.30;;;;;;;0.82;100.00;101258.48;1681716;83;21178;-89
2020/12/29 11:54:16;;;;;;;31.95;17.37;;;;;;;0.82;100.00;101255.92;1682045;84;21583;-89
2020/12/29 11:56:50;;;;;;;28.47;16.52;;;;;;;0.82;100.00;101267.45;1680945;82;21523;-89
2020/12/29 11:59:18;;;;;;;45.60;19.77;;;;;;;0.82;100.00;101269.16;1680120;83;21184;-89
2020/12/29 12:02:06;;;;;;;52.08;21.17;;;;;;;0.82;100.00;101262.75;1683418;82;21202;-89
2020/12/29 12:04:34;;;;;;;51.15;20.45;;;;;;;0.82;100.00;101273.87;1637192;85;21292;-88
2020/12/29 12:07:05;;;;;;;46.48;19.90;;;;;;;0.83;100.00;101270.85;1650642;84;21267;-89
2020/12/29 12:09:33;;;;;;;51.13;20.02;;;;;;;0.81;100.00;101265.77;1637894;85;21212;-89
2020/12/29 12:12:01;;;;;;;51.95;21.90;;;;;;;0.81;100.00;101264.48;1689524;82;21394;-89
2020/12/29 12:14:30;;;;;;;69.55;26.75;;;;;;;0.83;100.00;101265.72;1652527;84;21222;-89
2020/12/29 12:16:58;;;;;;;76.20;28.52;;;;;;;0.82;100.00;101267.45;1633901;86;21227;-90
2020/12/29 12:19:26;;;;;;;60.70;24.07;;;;;;;0.84;100.00;101276.39;1631405;85;21202;-89
2020/12/29 12:21:54;;;;;;;43.00;20.92;;;;;;;0.83;100.00;101264.02;1692367;82;21188;-89
2020/12/29 12:24:23;;;;;;;35.85;18.10;;;;;;;0.84;100.00;101265.67;1675337;83;21197;-89
2020/12/29 12:26:52;;;;;;;50.15;23.75;;;;;;;0.84;100.00;101265.67;1683402;81;21175;-89
2020/12/29 12:29:20;;;;;;;62.33;29.18;;;;;;;0.85;100.00;101274.23;1669492;83;21167;-89
2020/12/29 12:31:48;;;;;;;41.83;21.20;;;;;;;0.85;100.00;101272.49;1653202;84;21229;-89
2020/12/29 12:34:16;;;;;;;43.38;23.40;;;;;;;0.86;100.00;101269.50;1657254;85;21166;-89
2020/12/29 12:36:44;;;;;;;40.15;22.48;;;;;;;0.88;100.00;101261.34;1693735;83;21481;-89
2020/12/29 12:39:12;;;;;;;33.78;19.67;;;;;;;0.86;100.00;101257.52;1694956;83;21261;-89
2020/12/29 12:41:42;;;;;;;92.15;30.72;;;;;;;0.86;100.00;101257.52;1691744;83;21205;-89
2020/12/29 12:44:10;;;;;;;33.67;18.40;;;;;;;0.86;100.00;101257.97;1688907;84;21203;-89
2020/12/29 12:46:42;;;;;;;29.02;18.32;;;;;;;0.85;100.00;101253.27;1691045;84;21209;-89
2020/12/29 12:49:10;;;;;;;29.80;16.87;;;;;;;0.83;100.00;101247.35;1691137;84;21383;-89
2020/12/29 12:51:48;;;;;;;29.45;17.57;;;;;;;0.82;100.00;101243.09;1688936;83;26761;-90
2020/12/29 12:54:16;;;;;;;26.73;15.45;;;;;;;0.81;100.00;101237.56;1681542;82;21155;-89
2020/12/29 12:56:47;;;;;;;29.32;17.62;;;;;;;0.81;100.00;101234.14;1684865;83;21273;-89
2020/12/29 12:59:16;;;;;;;27.75;17.27;;;;;;;0.81;100.00;101235.42;1646734;85;21200;-89
2020/12/29 13:01:45;;;;;;;30.88;17.67;;;;;;;0.81;100.00;101229.87;1688332;82;22241;-89
2020/12/29 13:04:14;;;;;;;31.75;19.62;;;;;;;0.81;100.00;101232.86;1695089;83;21250;-88
2020/12/29 13:06:42;;;;;;;52.93;27.80;;;;;;;0.82;100.00;101243.09;1680529;84;21207;-89
2020/12/29 13:09:10;;;;;;;46.85;26.37;;;;;;;0.82;100.00;101243.09;1687516;83;21151;-90
2020/12/29 13:11:38;;;;;;;33.75;20.17;;;;;;;0.85;100.00;101240.44;1691402;83;21169;-88
2020/12/29 13:14:06;;;;;;;33.05;19.62;;;;;;;0.86;100.00;101225.46;1691643;83;22381;-88
2020/12/29 13:16:34;;;;;;;34.85;22.00;;;;;;;0.89;100.00;101228.38;1688871;83;21635;-89
2020/12/29 13:19:02;;;;;;;47.48;26.02;;;;;;;0.89;100.00;101234.38;1694443;83;21598;-88
2020/12/29 13:21:31;;;;;;;37.53;27.65;;;;;;;0.91;100.00;101222.78;1680904;84;21152;-88
2020/12/29 13:24:01;;;;;;;32.38;20.77;;;;;;;0.91;100.00;101224.92;1684780;83;21202;-88
2020/12/29 13:26:31;;;;;;;30.23;19.35;;;;;;;0.92;100.00;101238.58;1689239;83;21673;-89
2020/12/29 13:29:03;;;;;;;31.73;18.75;;;;;;;0.93;100.00;101246.22;1685061;83;21233;-89
2020/12/29 13:31:31;;;;;;;28.62;17.70;;;;;;;0.94;100.00;101239.39;1687890;83;21217;-89
2020/12/29 13:33:59;;;;;;;29.85;17.98;;;;;;;0.93;100.00;101239.81;1688584;83;21221;-89
2020/12/29 13:36:29;;;;;;;25.62;16.75;;;;;;;0.91;100.00;101244.16;1691621;84;21161;-89
2020/12/29 13:38:57;;;;;;;24.92;15.85;;;;;;;0.90;100.00;101246.31;1686895;84;22230;-89
2020/12/29 13:41:25;;;;;;;29.50;17.82;;;;;;;0.90;100.00;101251.87;1691513;83;21178;-89
2020/12/29 13:43:54;;;;;;;30.40;17.82;;;;;;;0.88;100.00;101241.66;1682535;84;21530;-89
2020/12/29 13:46:22;;;;;;;28.07;17.52;;;;;;;0.89;100.00;101245.05;1692274;83;21082;-89
2020/12/29 13:48:50;;;;;;;29.32;18.70;;;;;;;0.88;100.00;101240.37;1688903;83;21159;-89
2020/12/29 13:51:19;;;;;;;27.98;17.17;;;;;;;0.87;100.00;101234.84;1689052;82;21308;-90
2020/12/29 13:53:47;;;;;;;30.72;18.12;;;;;;;0.87;100.00;101228.88;1684626;84;21149;-89
2020/12/29 13:56:16;;;;;;;30.82;18.37;;;;;;;0.85;100.00;101227.62;1684073;84;21173;-89
2020/12/29 13:58:46;;;;;;;34.27;19.70;;;;;;;0.84;100.00;101222.08;1691249;83;21616;-89
2020/12/29 14:01:15;;;;;;;32.58;18.80;;;;;;;0.85;100.00;101220.37;1685917;83;21130;-89
2020/12/29 14:03:43;;;;;;;28.32;17.25;;;;;;;0.84;100.00;101228.49;1684114;83;21239;-89
2020/12/29 14:06:13;;;;;;;29.52;18.50;;;;;;;0.86;100.00;101229.76;1686186;82;21185;-89
2020/12/29 14:08:41;;;;;;;31.55;19.23;;;;;;;0.86;100.00;101229.30;1683653;83;21191;-90
2020/12/29 14:15:02;;;;;;;33.35;20.30;;;;;;;0.85;100.00;101237.88;1657602;84;21118;-92
2020/12/29 14:17:46;;;;;;;35.98;21.25;;;;;;;0.87;100.00;101232.28;1689188;83;22307;-92
2020/12/29 14:32:14;;;;;;;29.87;18.12;;;;;;;0.89;100.00;101238.22;1689180;83;21150;-91
2020/12/29 14:35:36;;;;;;;29.72;17.23;;;;;;;0.90;100.00;101242.47;1685375;83;21909;-92
2020/12/29 14:50:02;;;;;;;34.30;17.05;;;;;;;0.98;100.00;101238.88;1791734;79;21017;-95
2020/12/29 14:57:26;;;;;;;31.60;17.37;;;;;;;1.00;100.00;101235.38;1811622;77;21127;-90
2020/12/29 15:00:01;;;;;;;27.67;16.48;;;;;;;1.03;100.00;101243.01;1817639;77;21352;-91
2020/12/29 15:02:31;;;;;;;28.27;16.35;;;;;;;1.05;100.00;101251.94;1808801;78;21127;-90
2020/12/29 15:05:34;;;;;;;25.75;15.50;;;;;;;1.05;100.00;101251.94;1821567;78;21099;-90
2020/12/29 15:08:29;;;;;;;33.48;18.35;;;;;;;1.10;100.00;101254.80;1825411;77;21360;-91
2020/12/29 15:10:57;;;;;;;27.00;15.55;;;;;;;1.13;100.00;101248.74;1783836;80;21548;-89
2020/12/29 15:13:27;;;;;;;28.40;16.57;;;;;;;1.11;100.00;101260.76;1808758;78;21146;-90
2020/12/29 15:16:02;;;;;;;26.20;16.52;;;;;;;1.11;100.00;101262.04;1822913;78;21111;-89
2020/12/29 15:18:30;;;;;;;28.32;17.32;;;;;;;1.13;100.00;101260.28;1822998;78;21127;-89
2020/12/29 15:21:05;;;;;;;29.82;16.73;;;;;;;1.14;100.00;101261.11;1823030;78;21356;-90
2020/12/29 15:23:33;;;;;;;24.30;16.15;;;;;;;1.14;100.00;101266.24;1822952;78;21155;-89
2020/12/29 15:26:05;;;;;;;26.30;17.27;;;;;;;1.15;100.00;101263.66;1810675;78;21115;-89
2020/12/29 15:29:08;;;;;;;27.75;16.73;;;;;;;1.15;100.00;101268.80;1823029;78;21068;-89
2020/12/29 15:31:36;;;;;;;30.15;18.80;;;;;;;1.13;100.00;101263.27;1822988;78;21142;-89
2020/12/29 15:38:27;;;;;;;30.43;17.17;;;;;;;1.09;100.00;101267.22;1790542;80;21139;-89
2020/12/29 15:41:03;;;;;;;24.70;15.93;;;;;;;1.08;100.00;101273.23;1803610;78;21163;-89
2020/12/29 15:43:31;;;;;;;26.82;15.95;;;;;;;1.12;100.00;101271.88;1820378;78;21127;-89
2020/12/29 15:45:59;;;;;;;28.57;17.55;;;;;;;1.14;100.00;101272.23;1802079;78;21139;-89
2020/12/29 15:48:34;;;;;;;25.35;16.70;;;;;;;1.13;100.00;101270.97;1796088;79;21364;-89
2020/12/29 15:55:00;;;;;;;29.02;17.50;;;;;;;1.17;100.00;101264.44;1796254;79;21555;-89
2020/12/29 15:57:29;;;;;;;24.85;15.88;;;;;;;1.15;100.00;101262.80;1789087;79;21123;-89
2020/12/29 15:59:57;;;;;;;26.95;16.45;;;;;;;1.17;100.00;101271.31;1770585;80;21170;-89
2020/12/29 16:02:25;;;;;;;26.52;17.27;;;;;;;1.18;100.00;101280.70;1769673;81;22274;-89
2020/12/29 16:04:53;;;;;;;32.20;17.52;;;;;;;1.18;100.00;101278.13;1825000;77;21143;-90
2020/12/29 16:14:48;;;;;;;28.83;17.82;;;;;;;1.24;100.00;101280.53;1837108;78;21159;-89
2020/12/29 16:17:17;;;;;;;29.30;17.30;;;;;;;1.23;100.00;101284.84;1778773;78;21348;-90
2020/12/29 16:19:50;;;;;;;27.17;16.48;;;;;;;1.24;100.00;101281.81;1738910;82;21193;-89
2020/12/29 16:22:19;;;;;;;24.52;15.58;;;;;;;1.26;100.00;101286.48;1765854;80;21551;-89
2020/12/29 16:24:49;;;;;;;27.77;16.23;;;;;;;1.26;100.00;101283.91;1770195;80;21179;-90
2020/12/29 16:31:42;;;;;;;28.27;16.70;;;;;;;1.28;100.00;101278.30;1767960;80;21029;-96
2020/12/29 16:38:34;;;;;;;25.97;16.07;;;;;;;1.28;100.00;101290.27;1765459;80;20986;-96
2020/12/29 16:53:09;;;;;;;25.97;15.70;;;;;;;1.28;100.00;101296.69;1799029;78;21163;-96
2020/12/29 16:59:53;;;;;;;25.50;16.30;;;;;;;1.34;100.00;101293.97;1789032;79;21503;-96
2020/12/29 17:06:47;;;;;;;25.57;16.27;;;;;;;1.28;100.00;101293.70;1772281;81;21154;-96
2020/12/29 17:13:42;;;;;;;27.15;15.53;;;;;;;1.25;100.00;101303.58;1823766;78;21144;-93
2020/12/29 17:20:35;;;;;;;31.82;16.75;;;;;;;1.28;100.00;101305.67;1771692;80;21140;-95
2020/12/29 17:27:08;;;;;;;26.93;15.88;;;;;;;1.28;100.00;101312.09;1796342;79;21188;-94
2020/12/29 17:33:59;;;;;;;31.33;15.10;;;;;;;1.32;100.00;101324.80;1801392;78;21671;-93
2020/12/29 17:36:34;;;;;;;23.75;15.15;;;;;;;1.36;100.00;101322.55;1783248;79;21209;-92
2020/12/29 17:43:26;;;;;;;29.30;16.48;;;;;;;1.42;100.00;101324.13;1798953;78;21132;-92
2020/12/29 17:49:44;;;;;;;21.73;13.38;;;;;;;1.51;100.00;101340.58;1824924;77;21156;-92
2020/12/29 17:52:47;;;;;;;25.37;14.87;;;;;;;1.57;100.00;101334.00;1810984;78;21088;-92
2020/12/29 17:59:42;;;;;;;28.62;17.55;;;;;;;1.68;100.00;101332.42;1800684;79;21041;-96
2020/12/29 18:06:35;;;;;;;24.00;15.38;;;;;;;1.77;100.00;101337.78;1791751;79;21124;-92
2020/12/29 18:13:27;;;;;;;25.70;16.10;;;;;;;1.84;100.00;101344.89;1801052;79;21179;-93
2020/12/29 18:20:20;;;;;;;23.25;14.90;;;;;;;1.87;100.00;101343.08;1783383;79;21148;-93
2020/12/29 18:27:11;;;;;;;27.60;16.70;;;;;;;1.88;100.00;101342.16;1798348;79;21175;-93
2020/12/29 18:34:03;;;;;;;29.98;18.07;;;;;;;1.80;100.00;101342.84;1801971;78;21164;-93
2020/12/29 18:44:07;;;;;;;27.25;15.55;;;;;;;1.77;100.00;101349.76;1798650;78;21621;-93
2020/12/29 18:51:26;;;;;;;24.85;16.05;;;;;;;1.76;100.00;101357.09;1807602;77;21156;-93
2020/12/29 18:58:21;;;;;;;29.98;16.50;;;;;;;1.77;100.00;101358.33;1789054;79;21152;-96
2020/12/29 19:05:05;;;;;;;20.37;11.85;;;;;;;1.74;100.00;101363.53;1802637;79;21195;-93
2020/12/29 19:11:57;;;;;;;;;;;;;;;1.71;100.00;101361.05;1806378;79;21183;-92
2020/12/29 19:18:51;;;;;;;18.60;11.20;;;;;;;1.69;100.00;101362.81;1803560;79;21575;-93
2020/12/29 19:25:43;;;;;;;19.12;10.88;;;;;;;1.76;100.00;101366.08;1803561;79;21476;-93
2020/12/29 19:28:43;;;;;;;15.72;10.88;;;;;;;1.80;100.00;101362.11;1803697;79;21163;-93
2020/12/29 19:35:37;;;;;;;18.32;11.65;;;;;;;1.85;100.00;101352.97;1827787;78;21548;-92
2020/12/29 19:42:29;;;;;;;18.15;12.10;;;;;;;1.80;100.00;101337.70;1836592;78;21148;-92
2020/12/29 19:49:21;;;;;;;18.60;11.30;;;;;;;1.69;100.00;101326.86;1803628;79;21432;-93
2020/12/29 19:56:44;;;;;;;18.00;11.53;;;;;;;1.60;100.00;101348.50;1796336;79;21600;-92
2020/12/29 20:03:39;;;;;;;18.20;11.30;;;;;;;1.51;100.00;101359.83;1778296;80;21155;-92
2020/12/29 20:10:31;;;;;;;20.00;12.93;;;;;;;1.48;100.00;101357.78;1807694;79;21171;-93
2020/12/29 20:24:59;;;;;;;20.55;12.88;;;;;;;1.40;100.00;101351.13;1779264;79;21124;-92
2020/12/29 20:31:51;;;;;;;19.48;14.07;;;;;;;1.38;100.00;101371.30;1782558;79;21143;-92
2020/12/29 20:34:20;;;;;;;26.48;16.32;;;;;;;1.44;100.00;101368.57;1778115;80;21180;-93
2020/12/29 20:41:12;;;;;;;23.12;14.15;;;;;;;1.51;100.00;101364.14;1795729;79;21145;-92
2020/12/29 20:48:04;;;;;;;22.60;14.85;;;;;;;1.60;100.00;101359.20;1788065;79;21163;-92
2020/12/29 20:54:57;;;;;;;24.45;17.10;;;;;;;1.63;100.00;101353.99;1776470;80;21957;-92
2020/12/29 21:01:49;;;;;;;23.40;14.80;;;;;;;1.65;100.00;101356.92;1766799;80;21643;-93
2020/12/29 21:08:42;;;;;;;21.73;15.32;;;;;;;1.75;100.00;101357.52;1749790;80;21658;-93
2020/12/29 21:15:34;;;;;;;21.80;14.28;;;;;;;1.79;100.00;101375.83;1776432;80;21077;-91
2020/12/29 21:26:51;;;;;;;25.00;16.97;;;;;;;1.89;100.00;101369.99;1777131;80;21227;-92
2020/12/29 21:33:45;;;;;;;26.60;15.43;;;;;;;1.83;100.00;101364.57;1761189;80;21627;-92
2020/12/29 21:40:37;;;;;;;25.40;15.85;;;;;;;1.83;100.00;101385.13;1773041;79;21549;-92
2020/12/29 21:47:29;;;;;;;25.72;15.58;;;;;;;1.91;100.00;101384.07;1766812;80;21163;-91
2020/12/29 21:54:03;;;;;;;21.50;14.15;;;;;;;1.94;100.00;101384.83;1732667;80;21160;-91
2020/12/29 21:57:09;;;;;;;24.18;15.25;;;;;;;1.94;100.00;101371.16;1714430;83;21214;-92
2020/12/29 22:08:05;;;;;;;26.02;17.07;;;;;;;1.98;100.00;101395.86;1714162;83;21144;-94
2020/12/29 22:11:09;;;;;;;22.62;15.90;;;;;;;2.02;100.00;101388.50;1714317;83;21045;-94
2020/12/29 22:18:02;;;;;;;28.85;19.62;;;;;;;2.04;100.00;101397.84;1736859;82;21148;-93
2020/12/29 22:24:55;;;;;;;32.83;21.68;;;;;;;1.99;100.00;101409.98;1743846;82;21172;-93
2020/12/29 22:35:38;;;;;;;32.23;19.48;;;;;;;2.07;100.00;101441.88;1744092;82;21137;-91
2020/12/29 22:42:34;;;;;;;24.87;16.25;;;;;;;2.13;100.00;101448.13;1743770;82;21152;-93
2020/12/29 22:49:26;;;;;;;27.17;16.65;;;;;;;2.24;100.00;101439.30;1743956;82;21970;-93
2020/12/29 22:55:44;;;;;;;26.45;16.97;;;;;;;2.36;100.00;101437.23;1773032;79;21216;-93
2020/12/29 22:58:33;;;;;;;27.58;17.17;;;;;;;2.41;100.00;101441.39;1780742;80;21131;-93
2020/12/29 23:05:15;;;;;;;21.37;15.13;;;;;;;2.42;100.00;101438.80;1780706;80;21195;-93
2020/12/29 23:11:53;;;;;;;23.77;15.25;;;;;;;2.45;100.00;101446.41;1780992;80;21192;-93
2020/12/29 23:18:41;;;;;;;25.23;15.78;;;;;;;2.51;100.00;101431.27;1780967;80;21206;-94
2020/12/29 23:34:20;;;;;;;31.17;18.25;;;;;;;2.52;100.00;101422.21;1701429;84;21169;-92
2020/12/29 23:37:23;;;;;;;28.67;17.42;;;;;;;2.53;100.00;101429.05;1720256;83;21179;-92
2020/12/29 23:44:15;;;;;;;34.03;18.55;;;;;;;2.56;100.00;101418.28;1720174;83;21640;-93
2020/12/29 23:51:06;;;;;;;28.92;18.32;;;;;;;2.56;100.00;101417.85;1720046;83;21252;-93
